Time;durP1;ratioP1;P1;durP2;ratioP2;P2;SDS_P1;SDS_P2;PMS_P1;PMS_P2;Temp;Humidity;BMP_temperature;BMP_pressure;BME280_temperature;BME280_humidity;BME280_pressure;Samples;Min_cycle;Max_cycle;Signal;HPM_P1;HPM_P2
2022/11/25 00:00:10;;;;;;;22.43;14.10;;;7.60;86.50;;;10.13;63.92;101178.44;5083554;28;20217;-60
2022/11/25 00:02:43;;;;;;;20.00;14.07;;;7.60;86.50;;;10.08;63.58;101181.50;5085767;28;20283;-57
2022/11/25 00:05:10;;;;;;;18.87;12.53;;;7.60;86.50;;;10.11;64.03;101173.34;5085127;28;20216;-60
2022/11/25 00:07:38;;;;;;;19.60;12.77;;;7.60;86.50;;;10.11;63.83;101170.72;5085776;28;20201;-58
2022/11/25 00:10:07;;;;;;;16.50;12.87;;;7.60;86.50;;;10.10;64.04;101173.47;5084684;28;20204;-59
2022/11/25 00:12:34;;;;;;;17.20;12.47;;;7.60;86.70;;;10.09;63.83;101171.81;5079704;28;20294;-59
2022/11/25 00:15:01;;;;;;;19.10;13.17;;;7.60;86.60;;;10.07;63.58;101165.91;5093752;28;20216;-59
2022/11/25 00:17:28;;;;;;;20.03;12.80;;;7.50;86.50;;;10.04;63.86;101168.84;5108151;28;20200;-58
2022/11/25 00:19:55;;;;;;;17.90;12.30;;;7.60;86.60;;;10.04;63.40;101168.84;5088883;28;20197;-59
2022/11/25 00:22:22;;;;;;;18.60;12.13;;;7.60;86.70;;;10.01;63.45;101170.00;5068720;28;20221;-58
2022/11/25 00:24:51;;;;;;;17.63;12.20;;;7.50;86.60;;;10.06;63.32;101166.88;5069040;28;20189;-58
2022/11/25 00:27:18;;;;;;;21.13;12.57;;;7.50;86.60;;;10.08;63.37;101159.63;5068209;28;20194;-59
2022/11/25 00:29:45;;;;;;;18.30;11.43;;;7.50;86.70;;;10.07;63.77;101158.84;5071017;28;20202;-58
2022/11/25 00:32:12;;;;;;;16.80;11.57;;;7.50;86.60;;;10.05;63.08;101160.81;5069428;28;20245;-57
2022/11/25 00:34:39;;;;;;;18.30;10.57;;;7.50;86.50;;;10.04;63.37;101158.31;5069315;28;20202;-58
2022/11/25 00:37:06;;;;;;;17.93;12.50;;;7.50;86.50;;;10.00;63.14;101162.28;5070526;28;20189;-57
2022/11/25 00:39:33;;;;;;;18.27;11.33;;;7.50;86.50;;;9.98;63.14;101159.78;5088555;28;20215;-57
2022/11/25 00:44:48;;;;;;;15.53;10.93;;;7.40;86.50;;;10.00;63.69;101167.53;5092195;28;20203;-58
2022/11/25 00:47:18;;;;;;;17.80;11.63;;;7.40;86.50;;;10.02;63.23;101160.31;5088690;28;20198;-57
2022/11/25 00:49:47;;;;;;;19.27;11.83;;;7.40;87.30;;;10.05;63.59;101154.72;5091635;28;20223;-57
2022/11/25 00:52:16;;;;;;;14.23;10.60;;;7.40;86.60;;;10.07;63.38;101158.00;5088172;28;20243;-57
2022/11/25 00:54:46;;;;;;;19.53;11.30;;;7.40;86.60;;;10.07;62.94;101163.28;5082345;28;20285;-58
2022/11/25 00:57:16;;;;;;;18.43;10.33;;;7.50;86.60;;;10.08;63.68;101159.63;5067066;28;20248;-58
2022/11/25 00:59:43;;;;;;;16.67;10.00;;;7.40;86.50;;;10.12;63.09;101153.13;5061717;28;20255;-57
2022/11/25 01:02:12;;;;;;;19.20;9.70;;;7.50;86.50;;;10.16;63.19;101152.66;5074079;28;20290;-56
2022/11/25 01:04:39;;;;;;;17.53;10.27;;;7.50;86.60;;;10.17;62.90;101153.47;5076444;28;20189;-55
2022/11/25 01:07:06;;;;;;;14.27;9.53;;;7.50;86.50;;;10.17;63.04;101154.28;5075884;28;20201;-53
2022/11/25 01:09:34;;;;;;;14.50;9.90;;;7.50;86.50;;;10.21;62.64;101160.06;5076162;28;20203;-54
2022/11/25 01:12:02;;;;;;;17.43;10.40;;;7.50;86.50;;;10.22;62.85;101150.34;5072499;28;20282;-56
2022/11/25 01:14:31;;;;;;;15.47;9.70;;;7.50;86.20;;;10.20;62.96;101146.06;5081190;28;20195;-56
2022/11/25 01:16:59;;;;;;;13.53;9.77;;;7.50;86.10;;;10.17;62.46;101149.00;5080030;28;20284;-55
2022/11/25 01:19:26;;;;;;;15.23;9.20;;;7.60;86.20;;;10.14;63.15;101144.09;5067119;28;20190;-56
2022/11/25 01:21:53;;;;;;;15.60;8.33;;;7.50;85.90;;;10.14;62.95;101143.28;5055344;28;20617;-55
2022/11/25 01:24:20;;;;;;;14.70;8.53;;;7.60;86.00;;;10.16;62.84;101142.13;5055703;28;20260;-55
2022/11/25 01:26:50;;;;;;;14.73;8.67;;;7.60;86.00;;;10.14;62.48;101143.28;5062701;28;20300;-53
2022/11/25 01:29:18;;;;;;;14.23;7.97;;;7.50;85.80;;;10.14;62.45;101145.91;5079272;28;20220;-54
2022/11/25 01:31:47;;;;;;;14.63;7.80;;;7.60;85.90;;;10.17;63.10;101153.47;5063493;28;20218;-55
2022/11/25 01:34:17;;;;;;;15.30;8.80;;;7.60;85.80;;;10.12;62.53;101147.88;5055301;28;20255;-55
2022/11/25 01:36:44;;;;;;;15.37;8.27;;;7.50;85.60;;;10.11;62.85;101148.81;5064985;28;20196;-55
2022/11/25 01:39:17;;;;;;;18.10;8.77;;;7.50;85.50;;;10.08;62.62;101139.44;5074843;28;20193;-56
2022/11/25 01:41:46;;;;;;;15.83;7.93;;;7.50;85.50;;;10.06;62.96;101143.22;5054855;28;20221;-54
2022/11/25 01:44:16;;;;;;;11.80;8.33;;;7.50;85.40;;;10.03;62.80;101143.56;5060423;28;20248;-55
2022/11/25 01:46:59;;;;;;;17.57;8.57;;;7.50;85.40;;;9.98;62.84;101144.00;5094510;28;20613;-55
2022/11/25 01:49:35;;;;;;;11.10;6.40;;;7.50;85.50;;;9.94;62.48;101137.44;5073981;28;20197;-57
2022/11/25 01:52:12;;;;;;;12.67;8.47;;;7.50;85.40;;;9.93;63.11;101140.22;5074412;28;20219;-55
2022/11/25 01:54:47;;;;;;;15.13;8.20;;;7.50;85.30;;;9.94;62.58;101136.59;5075122;28;20197;-57
2022/11/25 01:57:23;;;;;;;13.13;8.30;;;7.50;85.50;;;9.88;62.91;101134.63;5068226;28;20230;-56
2022/11/25 01:59:55;;;;;;;11.97;7.83;;;7.50;85.50;;;9.82;63.29;101128.19;5074940;28;20185;-56
2022/11/25 02:02:24;;;;;;;13.40;7.17;;;7.40;85.30;;;9.87;63.11;101131.16;5074773;28;20227;-55
2022/11/25 02:04:51;;;;;;;12.10;7.03;;;7.40;85.30;;;9.94;62.72;101120.81;5075001;28;20185;-54
2022/11/25 02:07:28;;;;;;;12.33;6.63;;;7.40;85.50;;;9.94;62.82;101115.56;5073902;28;20612;-55
2022/11/25 02:09:58;;;;;;;11.63;6.83;;;7.40;85.70;;;9.94;62.95;101126.09;5074423;28;20181;-57
2022/11/25 02:12:27;;;;;;;12.87;7.60;;;7.40;85.60;;;9.95;62.63;101117.22;5069615;28;20209;-54
2022/11/25 02:14:57;;;;;;;9.60;6.43;;;7.40;85.50;;;9.97;62.35;101128.41;5071379;28;20204;-57
2022/11/25 02:17:25;;;;;;;11.97;6.83;;;7.40;85.50;;;10.00;62.46;101128.09;5094524;28;20272;-58
2022/11/25 02:20:03;;;;;;;11.97;6.77;;;7.40;85.60;;;9.99;62.81;101129.88;5082618;28;20189;-56
2022/11/25 02:22:55;;;;;;;13.50;6.77;;;7.40;85.40;;;9.97;62.40;101136.28;5068132;28;20233;-54
2022/11/25 02:25:27;;;;;;;14.37;7.13;;;7.40;85.30;;;9.99;62.85;101122.00;5057092;28;20257;-54
2022/11/25 02:28:01;;;;;;;13.53;7.17;;;7.40;86.00;;;10.02;62.46;101126.13;5074814;28;20185;-55
2022/11/25 02:30:28;;;;;;;11.30;6.47;;;7.40;85.20;;;10.04;62.33;101121.50;5072144;28;20188;-56
2022/11/25 02:32:58;;;;;;;14.20;7.23;;;7.40;85.10;;;10.04;61.89;101118.88;5074167;28;20217;-57
2022/11/25 02:35:30;;;;;;;12.70;7.53;;;7.40;85.10;;;10.00;62.11;101126.28;5074443;28;20186;-59
2022/11/25 02:38:04;;;;;;;10.90;6.87;;;7.40;84.90;;;9.96;62.04;101134.66;5072685;28;20181;-56
2022/11/25 02:40:39;;;;;;;13.83;6.83;;;7.40;84.90;;;9.92;62.35;101128.88;5053467;28;20194;-56
2022/11/25 02:43:06;;;;;;;8.73;6.20;;;7.40;84.90;;;9.92;62.74;101122.78;5055853;28;20221;-56
2022/11/25 02:45:55;;;;;;;9.77;6.10;;;7.40;84.80;;;9.90;62.12;101115.09;5079531;28;20677;-55
2022/11/25 02:48:23;;;;;;;15.00;6.73;;;7.40;84.90;;;9.92;62.21;101112.28;5068184;28;20723;-57
2022/11/25 02:51:13;;;;;;;10.77;6.30;;;7.40;85.00;;;9.92;62.17;101112.28;5073652;28;20240;-56
2022/11/25 02:53:41;;;;;;;12.33;6.47;;;7.40;85.80;;;9.96;62.17;101111.00;5071809;28;20199;-57
2022/11/25 02:56:13;;;;;;;14.87;6.67;;;7.40;85.10;;;9.97;62.32;101108.19;5070162;28;20193;-59
2022/11/25 02:58:41;;;;;;;13.07;7.00;;;7.40;85.10;;;9.99;62.63;101113.28;5075006;28;20258;-56
2022/11/25 03:01:08;;;;;;;9.43;5.30;;;7.40;85.00;;;10.00;62.17;101109.69;5074456;28;20221;-55
2022/11/25 03:03:37;;;;;;;11.43;5.67;;;7.40;85.00;;;9.99;61.91;101105.41;5074992;28;20200;-57
2022/11/25 03:06:04;;;;;;;14.40;6.23;;;7.40;84.90;;;10.01;62.54;101113.94;5073619;28;20193;-55
2022/11/25 03:08:31;;;;;;;10.90;5.23;;;7.40;84.90;;;10.01;62.33;101104.25;5072606;28;20193;-57
2022/11/25 03:10:58;;;;;;;11.73;5.73;;;7.40;84.90;;;10.04;62.19;101103.09;5061439;28;20192;-55
2022/11/25 03:13:26;;;;;;;10.07;5.87;;;7.40;84.80;;;10.10;61.74;101097.22;5073440;28;20614;-56
2022/11/25 03:15:53;;;;;;;12.07;5.90;;;7.40;84.90;;;10.13;61.59;101099.53;5090146;28;20665;-56
2022/11/25 03:18:20;;;;;;;14.47;6.50;;;7.50;84.90;;;10.17;61.77;101091.16;5092159;28;20188;-57
2022/11/25 03:20:52;;;;;;;8.17;5.60;;;7.50;84.90;;;10.16;61.61;101099.22;5073700;28;20604;-57
2022/11/25 03:23:19;;;;;;;12.37;6.07;;;7.50;84.80;;;10.18;61.51;101089.34;5072077;28;20189;-58
2022/11/25 03:25:46;;;;;;;13.43;5.30;;;7.50;84.70;;;10.22;62.06;101097.75;5053374;28;20194;-56
2022/11/25 03:28:14;;;;;;;11.10;5.30;;;7.60;84.70;;;10.22;61.46;101092.50;5067158;28;20200;-55
2022/11/25 03:30:42;;;;;;;11.73;5.83;;;7.60;84.50;;;10.25;61.80;101092.13;5073146;28;20299;-55
2022/11/25 03:33:09;;;;;;;10.47;5.27;;;7.60;84.40;;;10.23;61.32;101089.69;5073517;28;20224;-55
2022/11/25 03:35:36;;;;;;;8.63;5.43;;;7.60;84.30;;;10.27;61.24;101095.47;5073274;28;20190;-57
2022/11/25 03:38:03;;;;;;;9.10;5.80;;;7.70;84.30;;;10.30;61.30;101101.19;5073561;28;20185;-60
2022/11/25 03:40:30;;;;;;;11.47;5.27;;;7.70;84.20;;;10.35;61.68;101109.41;5069808;28;20190;-57
2022/11/25 03:42:57;;;;;;;13.40;5.40;;;7.70;84.10;;;10.36;61.14;101105.81;5053594;28;20216;-55
2022/11/25 03:45:24;;;;;;;9.47;5.17;;;7.70;84.20;;;10.40;61.30;101109.75;5078456;28;20640;-57
2022/11/25 03:47:53;;;;;;;9.70;5.13;;;7.70;83.90;;;10.43;60.56;101117.34;5082924;28;20198;-55
2022/11/25 03:50:20;;;;;;;9.90;5.20;;;7.70;83.70;;;10.43;61.16;101117.34;5081014;28;20189;-59
2022/11/25 03:52:47;;;;;;;7.23;4.80;;;7.80;83.60;;;10.42;60.47;101110.41;5089336;28;20198;-57
2022/11/25 03:55:14;;;;;;;11.43;5.10;;;7.80;83.40;;;10.45;61.21;101114.53;5071626;28;20197;-57
2022/11/25 03:57:41;;;;;;;9.03;5.47;;;7.80;83.40;;;10.42;61.08;101107.78;5072571;28;20200;-57
2022/11/25 04:00:10;;;;;;;13.37;5.47;;;7.80;83.30;;;10.41;60.98;101113.22;5073169;28;20262;-56
2022/11/25 04:02:37;;;;;;;7.80;5.30;;;7.80;83.10;;;10.35;61.01;101114.69;5072905;28;20220;-56
2022/11/25 04:05:08;;;;;;;11.03;5.10;;;7.80;83.00;;;10.29;60.84;101115.34;5062631;28;20247;-55
2022/11/25 04:07:35;;;;;;;10.03;4.77;;;7.80;83.00;;;10.31;61.19;101108.13;5066377;28;20201;-54
2022/11/25 04:10:04;;;;;;;11.67;5.00;;;7.80;83.10;;;10.35;61.10;101108.59;5072802;28;20189;-56
2022/11/25 04:12:46;;;;;;;8.80;4.67;;;7.80;83.20;;;10.32;61.14;101104.47;5072743;28;20217;-57
2022/11/25 04:15:15;;;;;;;8.70;4.87;;;7.80;83.20;;;10.35;60.69;101112.06;5076542;28;20190;-57
2022/11/25 04:17:42;;;;;;;11.30;4.67;;;7.80;83.30;;;10.36;60.80;101111.09;5067158;28;20647;-56
2022/11/25 04:20:13;;;;;;;9.10;4.83;;;7.80;83.30;;;10.41;61.18;101108.75;5055998;28;20190;-56
2022/11/25 04:22:40;;;;;;;9.57;4.63;;;7.80;83.40;;;10.45;60.77;101112.72;5066250;28;20316;-56
2022/11/25 04:25:08;;;;;;;7.53;4.23;;;7.80;83.30;;;10.47;60.27;101113.38;5076088;28;20185;-55
2022/11/25 04:27:35;;;;;;;8.27;4.20;;;7.80;83.10;;;10.47;61.05;101118.63;5057657;28;20662;-57
2022/11/25 04:30:03;;;;;;;8.60;4.20;;;7.90;83.20;;;10.50;60.80;101115.69;5056175;28;20194;-57
2022/11/25 04:32:30;;;;;;;12.30;4.57;;;7.90;83.20;;;10.48;60.62;101109.78;5055513;28;20638;-57
2022/11/25 04:34:57;;;;;;;8.77;4.53;;;7.90;83.10;;;10.51;60.31;101113.84;5056697;28;20190;-56
2022/11/25 04:37:25;;;;;;;8.10;4.17;;;7.90;83.10;;;10.53;60.31;101107.44;5057129;28;20260;-55
2022/11/25 04:39:52;;;;;;;9.77;4.93;;;7.90;83.20;;;10.56;60.97;101107.13;5057455;28;20194;-55
2022/11/25 04:42:33;;;;;;;11.47;4.93;;;7.90;83.20;;;10.62;60.63;101109.09;5072863;28;20240;-58
2022/11/25 04:45:03;;;;;;;7.70;4.23;;;7.90;83.30;;;10.66;60.16;101106.94;5059854;28;20320;-55
2022/11/25 04:47:50;;;;;;;16.27;4.60;;;8.00;83.20;;;10.68;60.49;101112.88;5072371;28;20203;-57
2022/11/25 04:50:20;;;;;;;13.93;5.00;;;8.00;83.10;;;10.66;60.48;101113.03;5082058;28;20197;-58
2022/11/25 04:52:49;;;;;;;8.80;4.50;;;8.00;83.00;;;10.71;60.59;101110.72;5080968;28;20212;-60
2022/11/25 04:55:16;;;;;;;7.90;4.23;;;8.10;84.00;;;10.74;60.53;101113.00;5063667;28;20196;-57
2022/11/25 04:57:43;;;;;;;9.43;4.57;;;8.10;83.20;;;10.78;60.34;101116.97;5078314;28;20259;-57
2022/11/25 05:00:12;;;;;;;9.60;3.93;;;8.10;83.20;;;10.80;60.27;101107.09;5062357;28;20190;-58
2022/11/25 05:02:39;;;;;;;11.03;4.30;;;8.10;83.10;;;10.83;60.42;101109.41;5080145;28;20225;-57
2022/11/25 05:05:07;;;;;;;7.50;4.50;;;8.10;83.10;;;10.84;60.42;101111.03;5068146;28;20209;-56
2022/11/25 05:07:34;;;;;;;11.43;4.50;;;8.20;83.00;;;10.88;60.49;101107.09;5075695;28;20193;-56
2022/11/25 05:10:04;;;;;;;6.57;4.27;;;8.20;83.00;;;10.99;60.47;101110.34;5083104;28;20255;-57
2022/11/25 05:12:31;;;;;;;8.67;4.30;;;8.20;83.10;;;11.03;60.12;101117.75;5074402;28;20634;-58
2022/11/25 05:14:58;;;;;;;8.83;4.53;;;8.30;83.00;;;11.01;59.96;101116.25;5084455;28;20193;-54
2022/11/25 05:17:29;;;;;;;7.67;4.80;;;8.30;82.60;;;11.04;59.95;101116.75;5092722;28;20241;-56
2022/11/25 05:19:56;;;;;;;10.87;4.90;;;8.30;82.70;;;11.03;59.47;101114.31;5063155;28;20216;-56
2022/11/25 05:22:27;;;;;;;7.07;4.17;;;8.30;82.50;;;11.05;59.73;101117.59;5071243;28;20217;-56
2022/11/25 05:24:54;;;;;;;6.73;4.23;;;8.40;82.60;;;11.05;59.81;101109.69;5074526;28;20185;-55
2022/11/25 05:27:24;;;;;;;9.60;4.33;;;8.40;82.90;;;11.03;59.96;101109.03;5075258;28;20715;-58
2022/11/25 05:29:52;;;;;;;11.50;4.13;;;8.40;83.10;;;10.94;60.27;101110.84;5075394;28;20887;-56
2022/11/25 05:32:22;;;;;;;7.20;4.93;;;8.40;83.10;;;10.96;60.47;101118.59;5073525;28;20728;-59
2022/11/25 05:34:49;;;;;;;7.67;4.10;;;8.40;83.20;;;10.97;60.49;101109.69;5068797;28;20232;-58
2022/11/25 05:37:16;;;;;;;12.30;4.23;;;8.40;83.30;;;10.94;60.53;101110.03;5054925;28;20186;-56
2022/11/25 05:39:50;;;;;;;8.83;4.23;;;8.40;83.30;;;10.93;60.52;101116.31;5055257;28;20261;-58
2022/11/25 05:42:17;;;;;;;9.40;4.67;;;8.30;83.30;;;10.92;61.20;101112.84;5054427;28;20565;-56
2022/11/25 05:44:46;;;;;;;8.17;4.23;;;8.30;83.40;;;10.86;60.71;101111.69;5068897;28;20665;-56
2022/11/25 05:47:13;;;;;;;12.77;5.03;;;8.30;83.30;;;10.82;60.54;101113.03;5076403;28;20642;-56
2022/11/25 05:49:41;;;;;;;7.13;4.07;;;8.30;83.30;;;10.83;60.91;101114.69;5073953;28;20596;-58
2022/11/25 05:52:08;;;;;;;9.43;4.30;;;8.30;83.40;;;10.76;60.97;101107.59;5072128;28;20247;-58
2022/11/25 05:54:35;;;;;;;8.33;4.00;;;8.30;83.50;;;10.78;61.42;101114.34;5074202;28;20209;-58
2022/11/25 05:57:02;;;;;;;7.40;3.60;;;8.20;83.50;;;10.71;61.18;101118.63;5074261;28;20201;-58
2022/11/25 05:59:29;;;;;;;8.97;4.33;;;8.20;83.50;;;10.72;61.02;101115.00;5071176;28;20647;-57
2022/11/25 06:01:58;;;;;;;10.43;4.30;;;8.20;83.60;;;10.70;61.56;101113.50;5057378;28;20277;-57
2022/11/25 06:04:25;;;;;;;8.00;4.43;;;8.20;83.60;;;10.70;61.40;101114.34;5076007;28;20185;-57
2022/11/25 06:06:52;;;;;;;7.47;4.10;;;8.20;83.80;;;10.70;61.72;101111.72;5075151;28;20212;-57
2022/11/25 06:09:19;;;;;;;9.60;4.33;;;8.20;83.90;;;10.72;61.83;101107.09;5073930;28;20196;-56
2022/11/25 06:11:46;;;;;;;10.73;4.33;;;8.20;84.00;;;10.73;61.86;101114.03;5074803;28;20255;-58
2022/11/25 06:14:16;;;;;;;7.60;4.43;;;8.20;84.00;;;10.71;61.73;101110.72;5071821;28;20196;-57
2022/11/25 06:16:43;;;;;;;11.17;4.87;;;8.20;84.20;;;10.72;61.83;101117.63;5082712;28;20189;-57
2022/11/25 06:19:14;;;;;;;7.20;3.70;;;8.20;85.00;;;10.77;61.67;101115.31;5069918;28;20204;-56
2022/11/25 06:21:41;;;;;;;8.23;4.60;;;8.20;84.20;;;10.72;61.56;101111.56;5055008;28;20232;-57
2022/11/25 06:24:08;;;;;;;10.73;5.07;;;8.20;84.30;;;10.70;62.09;101119.59;5060600;28;20190;-57
2022/11/25 06:26:36;;;;;;;10.53;4.93;;;8.20;84.40;;;10.75;61.61;101122.56;5057662;28;20194;-58
2022/11/25 06:29:03;;;;;;;8.70;4.50;;;8.20;84.40;;;10.79;61.66;101128.34;5070360;28;20284;-59
2022/11/25 06:31:30;;;;;;;9.27;4.10;;;8.20;84.40;;;10.79;61.99;101126.50;5057962;28;20607;-56
2022/11/25 06:33:57;;;;;;;7.03;4.30;;;8.20;84.40;;;10.82;61.54;101126.19;5072764;28;20185;-57
2022/11/25 06:36:25;;;;;;;9.37;4.53;;;8.20;84.40;;;10.86;61.99;101132.75;5052482;28;20263;-56
2022/11/25 06:38:53;;;;;;;9.30;4.33;;;8.20;84.40;;;10.92;61.89;101127.81;5054111;28;20244;-56
2022/11/25 06:41:21;;;;;;;8.33;3.80;;;8.30;84.60;;;10.92;61.33;101127.81;5054188;28;20589;-58
2022/11/25 06:43:48;;;;;;;8.53;4.33;;;8.30;84.60;;;10.94;61.45;101131.91;5062430;28;20217;-58
2022/11/25 06:46:18;;;;;;;6.97;4.10;;;8.30;84.50;;;10.92;61.10;101133.06;5094142;28;20242;-56
2022/11/25 06:48:51;;;;;;;7.70;4.20;;;8.30;84.40;;;10.93;61.16;101142.63;5075151;28;20191;-58
2022/11/25 06:51:19;;;;;;;7.97;4.40;;;8.30;84.50;;;10.92;61.28;101143.59;5073919;28;20213;-56
2022/11/25 06:53:47;;;;;;;10.40;4.63;;;8.30;84.60;;;10.92;61.99;101147.06;5073573;28;20193;-58
2022/11/25 06:56:17;;;;;;;7.43;4.20;;;8.30;84.80;;;10.92;62.14;101138.34;5062882;28;20720;-58
2022/11/25 06:58:46;;;;;;;8.50;4.47;;;8.30;85.00;;;10.92;62.03;101140.97;5072300;28;20195;-57
2022/11/25 07:01:17;;;;;;;8.50;4.53;;;8.30;85.00;;;10.89;61.96;101140.31;5074092;28;20231;-57
2022/11/25 07:03:46;;;;;;;13.17;4.93;;;8.30;85.30;;;10.84;62.00;101147.91;5074622;28;20197;-57
2022/11/25 07:06:15;;;;;;;13.03;4.20;;;8.30;85.40;;;10.83;62.56;101140.19;5075297;28;20197;-58
2022/11/25 07:08:43;;;;;;;8.10;4.10;;;8.30;85.50;;;10.83;62.86;101146.28;5074223;28;20696;-57
2022/11/25 07:11:16;;;;;;;8.87;4.60;;;8.30;85.60;;;10.83;62.45;101145.44;5063203;28;20212;-57
2022/11/25 07:13:43;;;;;;;7.20;4.23;;;8.30;85.70;;;10.82;62.57;101144.63;5073404;28;20174;-58
2022/11/25 07:16:14;;;;;;;9.03;3.80;;;8.30;85.70;;;10.83;62.90;101140.19;5094535;28;20193;-57
2022/11/25 07:18:41;;;;;;;11.73;4.90;;;8.30;85.90;;;10.81;62.54;101148.25;5068026;28;20236;-57
2022/11/25 07:21:13;;;;;;;8.43;4.30;;;8.30;85.90;;;10.80;63.01;101145.75;5053982;28;20244;-56
2022/11/25 07:23:41;;;;;;;9.77;4.13;;;8.30;86.00;;;10.81;62.65;101156.16;5059691;28;20669;-55
2022/11/25 07:26:13;;;;;;;10.07;4.13;;;8.30;86.00;;;10.79;62.75;101160.72;5072746;28;20197;-58
2022/11/25 07:28:42;;;;;;;7.40;4.47;;;8.30;86.00;;;10.79;62.76;101159.94;5074275;28;20193;-55
2022/11/25 07:31:15;;;;;;;7.43;4.13;;;8.30;86.10;;;10.78;62.83;101167.00;5073470;28;20209;-55
2022/11/25 07:33:58;;;;;;;7.97;4.00;;;8.30;86.30;;;10.72;63.17;101170.28;5073969;28;20177;-57
2022/11/25 07:36:25;;;;;;;7.60;4.20;;;8.20;86.20;;;10.68;63.59;101179.50;5074513;28;20633;-56
2022/11/25 07:38:53;;;;;;;11.57;4.63;;;8.30;86.40;;;10.72;63.87;101185.28;5060473;28;20190;-56
2022/11/25 07:41:25;;;;;;;12.90;5.10;;;8.20;86.40;;;10.75;63.17;101196.28;5053619;28;20217;-58
2022/11/25 07:43:55;;;;;;;11.33;3.57;;;8.20;86.50;;;10.74;63.32;101199.91;5053627;28;20267;-56
2022/11/25 07:46:25;;;;;;;10.07;4.10;;;8.20;86.60;;;10.74;63.25;101199.09;5057484;28;20194;-57
2022/11/25 07:48:56;;;;;;;8.23;4.27;;;8.20;86.50;;;10.78;63.41;101209.13;5075533;28;20192;-59
2022/11/25 07:51:26;;;;;;;9.00;4.57;;;8.20;86.60;;;10.83;63.61;101209.47;5072831;28;20581;-55
2022/11/25 07:53:56;;;;;;;9.03;4.00;;;8.20;86.70;;;10.92;63.07;101212.06;5056533;28;20190;-57
2022/11/25 07:56:25;;;;;;;6.60;3.70;;;8.30;87.00;;;11.00;62.98;101215.56;5056855;28;20558;-57
2022/11/25 07:58:52;;;;;;;9.30;4.17;;;8.30;87.00;;;11.07;63.02;101220.97;5057278;28;20225;-58
2022/11/25 08:01:20;;;;;;;6.03;4.20;;;8.30;87.00;;;11.15;62.64;101216.50;5058904;28;20213;-55
2022/11/25 08:03:50;;;;;;;7.73;3.67;;;8.40;87.10;;;11.20;62.26;101216.84;5056081;28;20292;-59
2022/11/25 08:06:21;;;;;;;13.30;4.10;;;8.40;86.90;;;11.22;62.34;101220.13;5069106;28;20197;-58
2022/11/25 08:08:51;;;;;;;9.47;3.83;;;8.40;86.60;;;11.27;62.40;101216.97;5056410;28;20194;-58
2022/11/25 08:11:21;;;;;;;7.73;4.07;;;8.50;86.70;;;11.31;62.35;101224.41;5055773;28;20542;-56
2022/11/25 08:13:50;;;;;;;11.23;4.67;;;8.50;86.80;;;11.36;62.13;101227.34;5056782;28;20214;-57
2022/11/25 08:16:20;;;;;;;9.83;4.50;;;8.50;86.70;;;11.38;61.99;101230.66;5077990;28;20693;-58
2022/11/25 08:18:48;;;;;;;8.80;3.80;;;8.60;86.60;;;11.41;61.96;101238.22;5064902;28;20197;-56
2022/11/25 08:21:17;;;;;;;8.70;4.50;;;8.60;87.40;;;11.42;61.91;101241.69;5075788;28;20242;-55
2022/11/25 08:23:48;;;;;;;12.10;4.63;;;8.60;86.40;;;11.42;62.00;101244.31;5077409;28;20217;-57
2022/11/25 08:26:18;;;;;;;11.33;5.10;;;8.60;86.30;;;11.45;61.87;101247.44;5075327;28;20217;-57
2022/11/25 08:28:46;;;;;;;8.90;4.00;;;8.70;86.50;;;11.51;62.08;101245.94;5075199;28;20239;-59
2022/11/25 08:31:18;;;;;;;7.07;4.10;;;8.70;86.60;;;11.51;61.75;101256.47;5076545;28;20564;-58
2022/11/25 08:33:47;;;;;;;9.77;3.93;;;8.70;86.20;;;11.49;62.07;101254.03;5065468;28;20186;-56
2022/11/25 08:36:15;;;;;;;9.80;4.53;;;8.70;86.00;;;11.39;62.07;101273.63;5057940;28;20206;-57
2022/11/25 08:38:46;;;;;;;8.63;4.10;;;8.70;85.90;;;11.38;62.41;101272.00;5066140;28;20218;-56
2022/11/25 08:41:21;;;;;;;10.73;4.20;;;8.70;86.00;;;11.36;62.15;101268.72;5070749;28;20627;-57
2022/11/25 08:43:49;;;;;;;13.73;5.80;;;8.70;85.90;;;11.41;62.42;101271.69;5068244;28;20225;-58
2022/11/25 08:46:25;;;;;;;11.67;5.13;;;8.70;86.10;;;11.45;62.53;101271.19;5058741;28;20198;-56
2022/11/25 08:48:52;;;;;;;9.63;4.57;;;8.70;86.20;;;11.52;62.27;101268.69;5058834;28;20336;-57
2022/11/25 08:51:23;;;;;;;18.63;10.83;;;8.80;86.40;;;11.61;62.14;101266.84;5066956;28;20218;-58
2022/11/25 08:54:03;;;;;;;10.03;5.33;;;8.80;86.60;;;11.69;61.98;101266.88;5070033;28;20190;-56
2022/11/25 08:56:30;;;;;;;11.53;4.67;;;8.80;86.80;;;11.70;61.48;101265.84;5055900;28;20834;-58
2022/11/25 08:59:08;;;;;;;12.43;7.23;;;8.90;86.20;;;11.72;61.66;101264.69;5071034;28;20251;-58
2022/11/25 09:01:36;;;;;;;11.93;6.87;;;8.90;86.20;;;11.77;61.99;101267.66;5064336;28;20343;-55
2022/11/25 09:04:05;;;;;;;7.97;4.00;;;8.90;86.20;;;11.78;61.55;101271.94;5076137;28;20206;-56
2022/11/25 09:06:33;;;;;;;12.63;5.63;;;9.00;86.10;;;11.85;61.86;101269.44;5067885;28;20262;-57
2022/11/25 09:09:00;;;;;;;8.43;4.17;;;9.00;86.40;;;11.91;61.53;101269.59;5068623;28;20280;-57
2022/11/25 09:11:28;;;;;;;9.63;4.60;;;9.00;86.40;;;11.97;61.83;101263.66;5054081;28;20213;-58
2022/11/25 09:13:55;;;;;;;9.77;4.33;;;9.10;87.20;;;12.05;61.45;101274.16;5062643;28;20259;-56
2022/11/25 09:16:23;;;;;;;10.17;5.03;;;9.10;86.60;;;12.10;61.31;101277.09;5066914;28;20193;-57
2022/11/25 09:18:54;;;;;;;7.03;4.40;;;9.20;86.50;;;12.13;61.04;101274.13;5072679;28;20263;-56
2022/11/25 09:21:23;;;;;;;8.77;4.50;;;9.20;86.00;;;12.16;61.30;101279.06;5056683;28;20270;-57
2022/11/25 09:23:53;;;;;;;8.67;5.37;;;9.30;86.00;;;12.21;61.00;101279.38;5063170;28;20224;-57
2022/11/25 09:26:24;;;;;;;10.10;5.33;;;9.30;86.10;;;12.22;60.83;101285.47;5065328;28;20192;-58
2022/11/25 09:28:55;;;;;;;9.17;4.60;;;9.30;85.90;;;12.22;61.12;101288.94;5078043;28;20220;-58
2022/11/25 09:31:23;;;;;;;8.63;4.73;;;9.40;85.80;;;12.24;61.14;101291.44;5077238;28;20252;-55
2022/11/25 09:33:51;;;;;;;8.80;4.10;;;9.40;85.70;;;12.24;61.10;101292.22;5078346;28;20189;-58
2022/11/25 09:36:20;;;;;;;6.57;5.00;;;9.40;85.70;;;12.28;61.38;101290.06;5077053;28;20201;-59
2022/11/25 09:38:48;;;;;;;17.30;10.33;;;9.40;85.80;;;12.31;60.99;101291.56;5066297;28;20193;-57
2022/11/25 09:47:51;;;;;;;7.03;3.93;;;9.50;85.80;;;12.35;61.44;101306.03;5065524;28;20224;-59
2022/11/25 09:50:44;;;;;;;9.77;4.10;;;9.60;85.80;;;12.46;61.39;101305.66;5058394;28;20263;-54
2022/11/25 09:53:32;;;;;;;12.00;4.60;;;9.60;86.20;;;12.55;61.03;101299.34;5064116;28;20216;-56
2022/11/25 09:56:08;;;;;;;8.57;4.07;;;9.70;86.20;;;12.63;61.23;101302.75;5072879;28;20193;-54
2022/11/25 09:58:48;;;;;;;7.57;5.10;;;9.70;86.00;;;12.71;60.81;101315.09;5065452;28;20222;-57
2022/11/25 10:01:21;;;;;;;12.10;5.00;;;9.80;86.10;;;12.73;60.76;101308.66;5065046;28;20308;-56
2022/11/25 10:03:56;;;;;;;9.07;4.07;;;9.80;85.80;;;12.67;60.64;101308.53;5072348;28;20201;-58
2022/11/25 10:06:27;;;;;;;11.77;5.07;;;9.80;85.40;;;12.68;60.72;101304.88;5067387;28;20251;-57
2022/11/25 10:08:59;;;;;;;10.80;5.40;;;9.80;85.50;;;12.74;60.96;101314.75;5070489;28;20210;-56
2022/11/25 10:11:43;;;;;;;10.00;4.50;;;9.90;85.70;;;12.76;60.90;101318.03;5055026;28;20249;-57
2022/11/25 10:14:22;;;;;;;12.10;4.73;;;9.90;85.70;;;12.77;60.66;101322.31;5081773;28;20236;-55
2022/11/25 10:16:57;;;;;;;10.67;4.67;;;9.90;85.70;;;12.76;60.92;101307.47;5076606;28;20637;-55
2022/11/25 10:19:42;;;;;;;7.67;4.07;;;9.90;85.70;;;12.71;61.13;101315.94;5073344;28;20284;-59
2022/11/25 10:22:24;;;;;;;7.60;3.83;;;9.90;85.70;;;12.66;61.20;101322.72;5071902;28;20287;-57
2022/11/25 10:24:57;;;;;;;10.30;5.43;;;10.00;84.60;;;12.74;61.43;101322.69;5055530;28;20662;-62
2022/11/25 10:27:40;;;;;;;10.83;4.90;;;10.00;84.70;;;12.79;61.42;101318.50;5089994;28;20192;-58
2022/11/25 10:30:22;;;;;;;12.33;5.00;;;10.00;84.80;;;12.84;61.24;101315.34;5070166;28;20229;-59
2022/11/25 10:32:58;;;;;;;10.73;5.00;;;10.10;84.80;;;12.88;61.30;101319.28;5061371;28;20289;-58
2022/11/25 10:35:47;;;;;;;8.63;4.50;;;10.10;84.80;;;12.93;61.20;101327.53;5070247;28;20219;-60